createdAt,value
2022-12-29T00:02:27.030Z,2.40
2022-12-29T00:04:54.747Z,3.63
2022-12-29T00:07:22.382Z,3.53
2022-12-29T00:09:50.032Z,3.53
2022-12-29T00:12:17.690Z,3.67
2022-12-29T00:15:03.041Z,3.03
2022-12-29T00:17:30.723Z,2.87
2022-12-29T00:20:16.055Z,3.30
2022-12-29T00:23:03.415Z,3.40
2022-12-29T00:25:48.698Z,3.50
2022-12-29T00:28:34.013Z,3.87
2022-12-29T00:31:20.928Z,4.60
2022-12-29T00:34:06.305Z,2.80
2022-12-29T00:36:43.402Z,4.37
2022-12-29T00:39:33.968Z,2.73
2022-12-29T00:42:29.175Z,1.93
2022-12-29T00:44:56.864Z,3.30
2022-12-29T00:47:24.554Z,3.13
2022-12-29T00:49:51.351Z,2.70
2022-12-29T00:52:19.021Z,3.23
2022-12-29T00:54:46.829Z,2.13
2022-12-29T00:57:14.554Z,2.60
2022-12-29T00:59:43.502Z,3.73
2022-12-29T01:02:12.256Z,3.73
2022-12-29T01:04:40.094Z,2.47
2022-12-29T01:07:07.935Z,1.90
2022-12-29T01:09:53.297Z,4.00
2022-12-29T01:12:41.518Z,3.20
2022-12-29T01:15:14.233Z,2.30
2022-12-29T01:17:42.933Z,3.10
2022-12-29T01:20:11.675Z,3.77
2022-12-29T01:22:39.854Z,2.90
2022-12-29T01:25:08.108Z,3.07
2022-12-29T01:27:36.193Z,3.03
2022-12-29T01:30:03.918Z,2.93
2022-12-29T01:32:33.185Z,3.20
2022-12-29T01:35:00.850Z,2.20
2022-12-29T01:37:28.614Z,1.77
2022-12-29T01:39:56.631Z,3.13
2022-12-29T01:42:27.337Z,3.60
2022-12-29T01:45:04.652Z,3.33
2022-12-29T01:47:35.864Z,3.20
2022-12-29T01:50:10.951Z,3.22
2022-12-29T01:52:43.248Z,2.23
2022-12-29T01:55:13.117Z,2.27
2022-12-29T01:57:46.105Z,3.13
2022-12-29T02:00:16.214Z,2.13
2022-12-29T02:02:52.953Z,3.37
2022-12-29T02:05:52.012Z,4.33
2022-12-29T02:08:20.497Z,3.43
2022-12-29T02:10:49.435Z,3.03
2022-12-29T02:13:19.117Z,3.73
2022-12-29T02:15:56.731Z,3.70
2022-12-29T02:18:31.307Z,3.47
2022-12-29T02:21:04.983Z,2.83
2022-12-29T02:24:06.548Z,3.93
2022-12-29T02:26:55.764Z,2.90
2022-12-29T02:29:44.820Z,3.50
2022-12-29T02:32:33.128Z,3.17
2022-12-29T02:35:04.079Z,2.70
2022-12-29T02:37:47.491Z,3.20
2022-12-29T02:40:30.297Z,1.93
2022-12-29T02:43:04.646Z,2.73
2022-12-29T02:45:44.014Z,2.37
2022-12-29T02:48:18.341Z,3.33
2022-12-29T02:50:55.113Z,2.37
2022-12-29T02:53:40.005Z,2.20
2022-12-29T02:56:07.879Z,4.23
2022-12-29T02:58:35.541Z,2.97
2022-12-29T03:01:29.421Z,2.60
2022-12-29T03:04:05.895Z,3.20
2022-12-29T03:06:53.341Z,2.20
2022-12-29T03:09:45.540Z,4.63
2022-12-29T03:12:47.379Z,3.47
2022-12-29T03:15:40.891Z,2.70
2022-12-29T03:18:47.433Z,2.30
2022-12-29T03:21:46.495Z,3.27
2022-12-29T03:24:18.003Z,3.37
2022-12-29T03:26:51.008Z,1.97
2022-12-29T03:29:22.672Z,2.27
2022-12-29T03:31:53.744Z,3.70
2022-12-29T03:34:23.940Z,2.97
2022-12-29T03:36:59.710Z,2.30
2022-12-29T03:39:28.529Z,3.07
2022-12-29T03:42:08.552Z,1.97
2022-12-29T03:44:41.951Z,1.80
2022-12-29T03:47:13.320Z,1.83
2022-12-29T03:49:41.582Z,2.90
2022-12-29T03:52:09.780Z,2.57
2022-12-29T03:54:43.501Z,2.87
2022-12-29T03:57:13.027Z,1.90
2022-12-29T03:59:51.892Z,2.43
2022-12-29T04:02:19.702Z,2.57
2022-12-29T04:04:48.285Z,2.57
2022-12-29T04:07:16.270Z,1.60
2022-12-29T04:09:44.256Z,2.43
2022-12-29T04:12:17.379Z,1.93
2022-12-29T04:14:46.012Z,2.77
2022-12-29T04:17:13.728Z,3.03
2022-12-29T04:19:43.417Z,2.27
2022-12-29T04:22:12.645Z,2.47
2022-12-29T04:24:41.272Z,2.17
2022-12-29T04:27:11.282Z,3.53
2022-12-29T04:30:14.008Z,5.20
2022-12-29T04:33:01.631Z,5.13
2022-12-29T04:35:30.368Z,2.83
2022-12-29T04:37:58.726Z,2.83
2022-12-29T04:40:27.054Z,3.03
2022-12-29T04:42:55.363Z,3.57
2022-12-29T04:45:24.409Z,2.90
2022-12-29T04:47:57.375Z,3.13
2022-12-29T04:50:43.895Z,3.43
2022-12-29T04:53:24.529Z,5.40
2022-12-29T04:55:54.701Z,3.23
2022-12-29T04:58:23.669Z,2.17
2022-12-29T05:00:53.810Z,3.30
2022-12-29T05:03:24.688Z,2.40
2022-12-29T05:05:56.189Z,2.60
2022-12-29T05:08:27.961Z,2.65
2022-12-29T05:10:58.426Z,3.13
2022-12-29T05:13:26.190Z,3.80
2022-12-29T05:15:55.490Z,3.03
2022-12-29T05:18:24.946Z,2.53
2022-12-29T05:20:52.719Z,2.93
2022-12-29T05:23:22.163Z,4.07
2022-12-29T05:26:00.332Z,2.67
2022-12-29T05:28:32.850Z,3.23
2022-12-29T05:31:14.367Z,3.03
2022-12-29T05:33:42.168Z,5.13
2022-12-29T05:36:10.910Z,2.47
2022-12-29T05:38:43.233Z,3.17
2022-12-29T05:41:12.143Z,3.77
2022-12-29T05:43:58.148Z,3.47
2022-12-29T05:46:44.173Z,2.77
2022-12-29T05:49:18.070Z,2.97
2022-12-29T05:52:09.146Z,2.70
2022-12-29T05:54:37.051Z,3.33
2022-12-29T05:57:10.942Z,3.63
2022-12-29T05:59:40.280Z,4.47
2022-12-29T06:02:08.147Z,3.40
2022-12-29T06:04:36.227Z,3.20
2022-12-29T06:07:04.268Z,2.53
2022-12-29T06:09:52.146Z,4.10
2022-12-29T06:12:20.485Z,2.80
2022-12-29T06:14:51.209Z,4.87
2022-12-29T06:17:18.908Z,3.70
2022-12-29T06:19:46.830Z,2.97
2022-12-29T06:22:14.755Z,5.30
2022-12-29T06:24:44.001Z,3.73
2022-12-29T06:27:12.271Z,3.07
2022-12-29T06:29:41.663Z,3.10
2022-12-29T06:32:09.822Z,4.20
2022-12-29T06:34:41.000Z,2.85
2022-12-29T06:37:08.799Z,2.47
2022-12-29T06:39:36.510Z,1.97
2022-12-29T06:42:11.716Z,4.10
2022-12-29T06:45:14.561Z,3.30
2022-12-29T06:47:42.220Z,2.73
2022-12-29T06:50:10.402Z,3.77
2022-12-29T06:52:38.163Z,3.73
2022-12-29T06:55:06.350Z,4.03
2022-12-29T06:57:34.102Z,4.63
2022-12-29T07:00:01.755Z,2.23
2022-12-29T07:02:29.525Z,3.20
2022-12-29T07:04:57.314Z,3.10
2022-12-29T07:07:24.989Z,3.70
2022-12-29T07:09:52.670Z,3.73
2022-12-29T07:12:20.286Z,3.47
2022-12-29T07:14:48.571Z,3.27
2022-12-29T07:17:16.209Z,3.83
2022-12-29T07:19:45.292Z,4.57
2022-12-29T07:22:12.982Z,4.07
2022-12-29T07:24:41.084Z,2.97
2022-12-29T07:27:08.854Z,4.77
2022-12-29T07:29:39.247Z,3.13
2022-12-29T07:32:07.168Z,3.77
2022-12-29T07:34:34.933Z,4.97
2022-12-29T07:37:02.597Z,3.97
2022-12-29T07:39:30.209Z,5.47
2022-12-29T07:42:02.815Z,4.90
2022-12-29T07:44:39.265Z,3.20
2022-12-29T07:47:25.527Z,4.10
2022-12-29T07:49:53.158Z,2.87
2022-12-29T07:52:20.947Z,5.30
2022-12-29T07:54:48.617Z,4.23
2022-12-29T07:57:16.299Z,4.27
2022-12-29T07:59:44.362Z,4.00
2022-12-29T08:02:13.450Z,4.20
2022-12-29T08:04:41.236Z,4.70
2022-12-29T08:07:08.951Z,5.23
2022-12-29T08:09:36.555Z,6.03
2022-12-29T08:12:04.324Z,4.47
2022-12-29T08:14:31.965Z,5.77
2022-12-29T08:16:59.657Z,6.53
2022-12-29T08:19:27.306Z,5.50
2022-12-29T08:21:55.527Z,6.30
2022-12-29T08:24:23.467Z,5.93
2022-12-29T08:26:51.819Z,4.60
2022-12-29T08:29:19.483Z,6.23
2022-12-29T08:31:47.261Z,8.77
2022-12-29T08:34:15.302Z,9.60
2022-12-29T08:36:43.013Z,7.20
2022-12-29T08:39:11.256Z,5.87
2022-12-29T08:41:38.986Z,7.77
2022-12-29T08:44:07.248Z,9.63
2022-12-29T08:46:34.924Z,9.43
2022-12-29T08:49:02.561Z,7.50
2022-12-29T08:51:30.189Z,6.13
2022-12-29T08:53:57.879Z,5.00
2022-12-29T08:56:25.892Z,6.20
2022-12-29T08:58:57.152Z,4.43
2022-12-29T09:01:25.955Z,5.53
2022-12-29T09:04:14.386Z,5.43
2022-12-29T09:06:42.640Z,4.20
2022-12-29T09:09:10.428Z,6.40
2022-12-29T09:11:38.256Z,4.50
2022-12-29T09:14:06.123Z,3.53
2022-12-29T09:16:34.806Z,4.23
2022-12-29T09:19:03.365Z,4.63
2022-12-29T09:21:31.333Z,4.67
2022-12-29T09:23:59.015Z,4.63
2022-12-29T09:26:26.882Z,3.67
2022-12-29T09:28:54.501Z,4.47
2022-12-29T09:31:23.223Z,4.77
2022-12-29T09:33:51.016Z,6.30
2022-12-29T09:36:18.684Z,5.47
2022-12-29T09:38:46.347Z,4.47
2022-12-29T09:41:27.285Z,4.40
2022-12-29T09:44:09.046Z,2.57
2022-12-29T09:46:42.098Z,3.85
2022-12-29T09:49:22.026Z,2.60
2022-12-29T09:51:55.038Z,3.43
2022-12-29T09:54:48.232Z,3.40
2022-12-29T09:57:26.340Z,2.20
2022-12-29T10:00:01.174Z,2.83
2022-12-29T10:02:45.749Z,3.10
2022-12-29T10:05:37.388Z,3.87
2022-12-29T10:08:18.418Z,3.30
2022-12-29T10:10:58.518Z,2.83
2022-12-29T10:14:03.386Z,3.37
2022-12-29T10:16:48.734Z,2.50
2022-12-29T10:19:35.286Z,2.67
2022-12-29T10:22:19.128Z,3.77
2022-12-29T10:24:49.423Z,2.53
2022-12-29T10:27:18.368Z,2.93
2022-12-29T10:29:52.828Z,3.13
2022-12-29T10:32:31.487Z,3.03
2022-12-29T10:35:20.930Z,2.83
2022-12-29T10:38:05.923Z,3.10
2022-12-29T10:40:51.898Z,3.00
2022-12-29T10:43:22.316Z,3.97
2022-12-29T10:45:50.320Z,3.60
2022-12-29T10:48:31.990Z,2.73
2022-12-29T10:51:02.783Z,1.73
2022-12-29T10:53:48.247Z,4.33
2022-12-29T10:56:36.049Z,2.80
2022-12-29T10:59:27.565Z,2.40
2022-12-29T11:02:15.352Z,3.00
2022-12-29T11:04:45.658Z,3.73
2022-12-29T11:07:16.269Z,3.20
2022-12-29T11:09:46.031Z,3.75
2022-12-29T11:12:32.029Z,3.13
2022-12-29T11:15:21.718Z,3.83
2022-12-29T11:17:55.924Z,4.70
2022-12-29T11:20:29.474Z,5.10
2022-12-29T11:22:57.549Z,6.40
2022-12-29T11:25:25.203Z,5.43
2022-12-29T11:28:16.125Z,5.57
2022-12-29T11:30:44.523Z,3.57
2022-12-29T11:33:12.265Z,3.17
2022-12-29T11:35:44.395Z,2.63
2022-12-29T11:38:25.498Z,2.90
2022-12-29T11:40:53.368Z,2.60
2022-12-29T11:43:34.411Z,2.57
2022-12-29T11:46:04.690Z,2.50
2022-12-29T11:48:42.643Z,2.47
2022-12-29T11:51:12.786Z,3.03
2022-12-29T11:53:53.503Z,2.73
2022-12-29T11:56:40.526Z,3.07
2022-12-29T11:59:30.902Z,2.93
2022-12-29T12:02:00.935Z,4.03
2022-12-29T12:04:33.261Z,4.57
2022-12-29T12:07:10.001Z,5.00
2022-12-29T12:09:45.744Z,3.47
2022-12-29T12:12:37.462Z,4.07
2022-12-29T12:15:15.514Z,4.17
2022-12-29T12:18:05.903Z,4.57
2022-12-29T12:20:47.587Z,6.13
2022-12-29T12:23:33.851Z,5.53
2022-12-29T12:26:05.697Z,6.17
2022-12-29T12:28:42.802Z,5.65
2022-12-29T12:31:51.718Z,5.43
2022-12-29T12:34:31.118Z,5.07
2022-12-29T12:37:21.092Z,4.50
2022-12-29T12:40:05.557Z,3.90
2022-12-29T12:42:45.105Z,4.50
2022-12-29T12:45:22.107Z,4.70
2022-12-29T12:48:05.133Z,3.97
2022-12-29T12:50:48.093Z,3.23
2022-12-29T12:53:22.063Z,2.03
2022-12-29T12:55:58.859Z,3.23
2022-12-29T12:58:41.885Z,1.63
2022-12-29T13:01:31.435Z,2.80
2022-12-29T13:04:24.825Z,3.23
2022-12-29T13:07:28.704Z,2.53
2022-12-29T13:10:28.765Z,2.67
2022-12-29T13:12:56.344Z,7.20
2022-12-29T13:15:41.249Z,3.27
2022-12-29T13:18:11.853Z,2.17
2022-12-29T13:21:07.345Z,2.23
2022-12-29T13:23:43.433Z,1.40
2022-12-29T13:26:11.060Z,1.73
2022-12-29T13:28:54.859Z,1.73
2022-12-29T13:31:48.283Z,1.83
2022-12-29T13:34:57.554Z,3.40
2022-12-29T13:37:29.917Z,3.70
2022-12-29T13:40:04.420Z,10.93
2022-12-29T13:42:32.611Z,4.80
2022-12-29T13:45:08.470Z,10.07
2022-12-29T13:47:44.372Z,9.03
2022-12-29T13:50:20.360Z,4.13
2022-12-29T13:53:04.195Z,4.27
2022-12-29T13:55:46.822Z,5.53
2022-12-29T13:58:34.103Z,7.77
2022-12-29T14:01:39.441Z,7.20
2022-12-29T14:04:24.732Z,12.10
2022-12-29T14:07:04.310Z,5.50
2022-12-29T14:09:42.303Z,6.03
2022-12-29T14:12:38.547Z,3.63
2022-12-29T14:15:12.434Z,2.77
2022-12-29T14:17:46.568Z,2.07
2022-12-29T14:20:24.559Z,3.17
2022-12-29T14:23:12.431Z,3.23
2022-12-29T14:26:07.523Z,2.20
2022-12-29T14:28:38.810Z,2.13
2022-12-29T14:31:18.743Z,1.77
2022-12-29T14:34:08.142Z,2.10
2022-12-29T14:36:41.481Z,2.03
2022-12-29T14:39:42.282Z,1.93
2022-12-29T14:42:13.183Z,1.67
2022-12-29T14:44:58.846Z,1.93
2022-12-29T14:47:32.382Z,2.47
2022-12-29T14:50:16.238Z,1.50
2022-12-29T14:53:06.178Z,2.17
2022-12-29T14:55:47.477Z,1.60
2022-12-29T14:58:20.421Z,1.52
2022-12-29T15:00:48.914Z,1.63
2022-12-29T15:03:22.769Z,2.73
2022-12-29T15:05:56.845Z,1.73
2022-12-29T15:08:35.355Z,2.40
2022-12-29T15:11:11.715Z,1.80
2022-12-29T15:13:44.371Z,1.73
2022-12-29T15:16:36.857Z,1.50
2022-12-29T15:19:06.153Z,1.17
2022-12-29T15:21:38.293Z,2.17
2022-12-29T15:24:06.489Z,1.93
2022-12-29T15:26:46.180Z,1.93
2022-12-29T15:29:49.951Z,3.23
2022-12-29T15:32:17.624Z,1.97
2022-12-29T15:34:46.952Z,1.70
2022-12-29T15:37:37.573Z,2.43
2022-12-29T15:40:06.050Z,2.00
2022-12-29T15:43:02.826Z,2.53
2022-12-29T15:45:35.715Z,2.57
2022-12-29T15:48:04.374Z,1.53
2022-12-29T15:50:35.058Z,2.03
2022-12-29T15:53:04.383Z,2.10
2022-12-29T15:55:37.843Z,2.37
2022-12-29T15:58:07.823Z,2.50
2022-12-29T16:00:38.657Z,2.70
2022-12-29T16:03:13.159Z,2.53
2022-12-29T16:05:41.961Z,1.87
2022-12-29T16:08:26.585Z,1.30
2022-12-29T16:10:57.243Z,1.63
2022-12-29T16:13:43.063Z,1.60
2022-12-29T16:16:19.893Z,2.67
2022-12-29T16:18:53.450Z,1.07
2022-12-29T16:21:33.664Z,1.90
2022-12-29T16:24:08.906Z,2.57
2022-12-29T16:26:36.835Z,2.03
2022-12-29T16:29:08.925Z,3.30
2022-12-29T16:31:38.851Z,2.00
2022-12-29T16:34:34.037Z,2.67
2022-12-29T16:37:04.648Z,4.17
2022-12-29T16:39:40.471Z,2.80
2022-12-29T16:42:50.952Z,2.63
2022-12-29T16:45:22.674Z,1.23
2022-12-29T16:48:13.114Z,1.60
2022-12-29T16:50:45.266Z,1.97
2022-12-29T16:53:40.704Z,1.80
2022-12-29T16:56:18.601Z,1.90
2022-12-29T16:58:51.991Z,1.53
2022-12-29T17:01:20.730Z,3.90
2022-12-29T17:03:54.639Z,5.27
2022-12-29T17:06:24.136Z,6.90
2022-12-29T17:08:53.216Z,6.67
2022-12-29T17:11:42.569Z,3.30
2022-12-29T17:14:37.990Z,5.70
2022-12-29T17:17:11.859Z,2.90
2022-12-29T17:19:40.352Z,2.43
2022-12-29T17:22:15.493Z,2.50
2022-12-29T17:24:43.153Z,3.57
2022-12-29T17:27:22.420Z,4.90
2022-12-29T17:29:50.972Z,3.00
2022-12-29T17:32:18.952Z,2.60
2022-12-29T17:34:46.616Z,2.90
2022-12-29T17:37:23.272Z,1.87
2022-12-29T17:39:51.004Z,2.13
2022-12-29T17:42:20.634Z,2.00
2022-12-29T17:44:48.549Z,2.57
2022-12-29T17:47:16.900Z,2.30
2022-12-29T17:49:46.088Z,1.73
2022-12-29T17:52:16.095Z,1.60
2022-12-29T17:54:47.933Z,2.80
2022-12-29T17:59:44.648Z,2.30
2022-12-29T18:02:33.130Z,1.93
2022-12-29T18:05:01.298Z,1.80
2022-12-29T18:07:35.645Z,2.57
2022-12-29T18:10:04.813Z,1.93
2022-12-29T18:12:46.864Z,1.63
2022-12-29T18:18:00.123Z,2.17
2022-12-29T18:20:30.056Z,2.20
2022-12-29T18:22:58.851Z,2.50
2022-12-29T18:25:31.042Z,1.43
2022-12-29T18:27:58.702Z,1.50
2022-12-29T18:30:26.349Z,1.50
2022-12-29T18:32:54.560Z,1.47
2022-12-29T18:35:34.512Z,2.13
2022-12-29T18:38:02.233Z,1.50
2022-12-29T18:40:30.410Z,0.93
2022-12-29T18:42:58.049Z,1.17
2022-12-29T18:45:26.145Z,1.43
2022-12-29T18:47:54.043Z,0.87
2022-12-29T18:50:21.771Z,1.00
2022-12-29T18:52:49.591Z,1.10
2022-12-29T18:55:23.802Z,0.87
2022-12-29T18:57:52.601Z,1.17
2022-12-29T19:00:22.715Z,1.63
2022-12-29T19:02:52.164Z,1.20
2022-12-29T19:05:32.618Z,1.13
2022-12-29T19:08:00.303Z,1.33
2022-12-29T19:10:28.134Z,2.20
2022-12-29T19:12:55.833Z,1.50
2022-12-29T19:15:32.881Z,1.93
2022-12-29T19:20:52.547Z,4.40
2022-12-29T19:23:23.666Z,3.53
2022-12-29T19:25:52.417Z,6.82
2022-12-29T19:28:26.182Z,2.13
2022-12-29T19:30:57.478Z,2.73
2022-12-29T19:33:25.277Z,3.40
2022-12-29T19:35:53.997Z,5.90
2022-12-29T19:38:21.710Z,9.87
2022-12-29T19:40:51.511Z,5.33
2022-12-29T19:43:19.715Z,2.83
2022-12-29T19:45:47.426Z,2.47
2022-12-29T19:48:17.482Z,2.90
2022-12-29T19:50:45.563Z,3.07
2022-12-29T19:53:13.580Z,1.90
2022-12-29T19:55:48.368Z,3.33
2022-12-29T19:58:16.312Z,3.43
2022-12-29T20:00:44.680Z,3.17
2022-12-29T20:03:12.868Z,4.83
2022-12-29T20:05:41.323Z,4.90
2022-12-29T20:08:09.014Z,4.80
2022-12-29T20:10:36.754Z,3.70
2022-12-29T20:13:06.089Z,4.47
2022-12-29T20:15:33.884Z,4.67
2022-12-29T20:18:13.153Z,3.63
2022-12-29T20:20:41.704Z,3.33
2022-12-29T20:23:09.623Z,2.30
2022-12-29T20:25:46.062Z,2.40
2022-12-29T20:28:14.503Z,2.87
2022-12-29T20:30:42.215Z,1.93
2022-12-29T20:33:10.190Z,2.47
2022-12-29T20:35:38.280Z,1.83
2022-12-29T20:38:06.295Z,7.83
2022-12-29T20:40:34.004Z,7.30
2022-12-29T20:43:01.678Z,3.83
2022-12-29T20:45:29.351Z,2.27
2022-12-29T20:47:57.061Z,0.90
2022-12-29T20:50:24.787Z,2.77
2022-12-29T20:52:53.471Z,4.10
2022-12-29T20:55:21.153Z,2.50
2022-12-29T21:00:36.705Z,4.97
2022-12-29T21:03:05.010Z,2.90
2022-12-29T21:05:32.731Z,2.00
2022-12-29T21:08:00.611Z,1.83
2022-12-29T21:10:28.323Z,1.37
2022-12-29T21:12:56.020Z,1.10
2022-12-29T21:15:23.764Z,1.07
2022-12-29T21:17:51.467Z,1.17
2022-12-29T21:20:29.793Z,0.97
2022-12-29T21:22:58.019Z,1.50
2022-12-29T21:25:25.721Z,1.10
2022-12-29T21:27:53.505Z,1.33
2022-12-29T21:30:21.205Z,5.43
2022-12-29T21:32:48.897Z,6.00
2022-12-29T21:35:16.580Z,3.50
2022-12-29T21:37:44.226Z,4.33
2022-12-29T21:40:12.239Z,4.27
2022-12-29T21:42:39.900Z,2.73
2022-12-29T21:45:26.643Z,2.60
2022-12-29T21:48:24.131Z,1.77
2022-12-29T21:51:30.593Z,1.43
2022-12-29T21:54:21.516Z,1.60
2022-12-29T21:56:50.076Z,1.20
2022-12-29T21:59:35.769Z,0.90
2022-12-29T22:02:35.316Z,0.80
2022-12-29T22:05:20.539Z,0.73
2022-12-29T22:08:05.841Z,1.47
2022-12-29T22:10:51.027Z,0.53
2022-12-29T22:13:18.732Z,1.53
2022-12-29T22:15:46.444Z,0.80
2022-12-29T22:18:15.296Z,1.37
2022-12-29T22:20:42.933Z,0.87
2022-12-29T22:23:10.637Z,0.80
2022-12-29T22:25:41.058Z,2.50
2022-12-29T22:28:08.742Z,1.93
2022-12-29T22:30:37.041Z,3.70
2022-12-29T22:33:04.753Z,4.03
2022-12-29T22:35:32.505Z,4.63
2022-12-29T22:38:00.239Z,2.30
2022-12-29T22:40:27.875Z,2.50
2022-12-29T22:42:55.611Z,3.07
2022-12-29T22:45:23.312Z,2.90
2022-12-29T22:47:51.005Z,2.77
2022-12-29T22:50:18.715Z,2.27
2022-12-29T22:52:46.402Z,1.87
2022-12-29T22:55:14.275Z,0.90
2022-12-29T22:57:41.932Z,1.33
2022-12-29T23:00:10.114Z,1.17
2022-12-29T23:02:37.873Z,1.03
2022-12-29T23:05:06.538Z,1.20
2022-12-29T23:07:37.511Z,1.03
2022-12-29T23:10:06.138Z,2.20
2022-12-29T23:12:33.826Z,1.00
2022-12-29T23:15:01.600Z,1.30
2022-12-29T23:17:29.261Z,1.97
2022-12-29T23:19:56.944Z,1.57
2022-12-29T23:22:25.113Z,1.33
2022-12-29T23:24:52.873Z,1.00
2022-12-29T23:27:20.653Z,1.63
2022-12-29T23:29:48.387Z,1.27
2022-12-29T23:32:16.041Z,1.57
2022-12-29T23:34:43.694Z,3.30
2022-12-29T23:37:11.355Z,4.30
2022-12-29T23:39:39.060Z,2.47
2022-12-29T23:42:06.939Z,2.10
2022-12-29T23:44:34.857Z,5.03
2022-12-29T23:47:04.592Z,3.90
2022-12-29T23:49:32.301Z,4.77
2022-12-29T23:51:59.935Z,3.37
2022-12-29T23:54:27.627Z,3.13
2022-12-29T23:56:56.649Z,2.60
2022-12-29T23:59:24.420Z,3.60
